Time;durP1;ratioP1;P1;durP2;ratioP2;P2;SDS_P1;SDS_P2;PMS_P1;PMS_P2;Temp;Humidity;BMP_temperature;BMP_pressure;BME280_temperature;BME280_humidity;BME280_pressure;Samples;Min_cycle;Max_cycle;Signal;HPM_P1;HPM_P2
2023/12/02 00:00:10;;;;;;;14.93;9.37;;;2.90;29.20;;;;;;5045624;28;20454;-67
2023/12/02 00:02:38;;;;;;;14.60;9.33;;;2.90;29.40;;;;;;5044623;28;20465;-67
2023/12/02 00:05:06;;;;;;;16.17;11.10;;;2.90;30.00;;;;;;5046432;28;20462;-67
2023/12/02 00:07:32;;;;;;;13.83;9.87;;;2.90;29.20;;;;;;5044081;28;20473;-67
2023/12/02 00:09:59;;;;;;;14.20;9.37;;;2.90;29.20;;;;;;5045720;28;20468;-68
2023/12/02 00:12:26;;;;;;;14.97;10.73;;;2.90;29.10;;;;;;5044294;28;20512;-67
2023/12/02 00:14:53;;;;;;;15.93;11.03;;;2.90;29.10;;;;;;5045377;28;20462;-68
2023/12/02 00:17:20;;;;;;;16.20;11.93;;;2.90;29.30;;;;;;5044589;28;20601;-68
2023/12/02 00:19:48;;;;;;;14.77;10.03;;;2.90;29.40;;;;;;5046596;28;20453;-68
2023/12/02 00:22:15;;;;;;;13.63;10.17;;;2.90;29.40;;;;;;5046716;28;20462;-68
2023/12/02 00:24:42;;;;;;;14.03;10.60;;;2.90;29.30;;;;;;5046151;28;20553;-67
2023/12/02 00:27:09;;;;;;;13.40;9.70;;;2.90;29.20;;;;;;5043932;28;20749;-67
2023/12/02 00:29:35;;;;;;;14.80;10.47;;;2.90;29.10;;;;;;5046337;28;21341;-67
2023/12/02 00:32:02;;;;;;;16.80;10.70;;;3.00;29.20;;;;;;5041339;28;20492;-67
2023/12/02 00:34:29;;;;;;;14.73;10.70;;;2.90;29.20;;;;;;5044053;28;20473;-67
2023/12/02 00:36:57;;;;;;;14.20;9.33;;;2.90;29.00;;;;;;5044035;28;21078;-67
2023/12/02 00:39:24;;;;;;;15.40;10.50;;;2.80;28.90;;;;;;5047205;28;21164;-67
2023/12/02 00:41:51;;;;;;;18.97;11.47;;;2.80;29.10;;;;;;5047425;28;20468;-68
2023/12/02 00:44:19;;;;;;;16.30;11.03;;;2.80;29.30;;;;;;5042952;28;21151;-68
2023/12/02 00:46:46;;;;;;;14.83;9.60;;;2.80;29.10;;;;;;5044510;28;20513;-67
2023/12/02 00:49:13;;;;;;;16.17;10.43;;;2.80;29.20;;;;;;5040598;28;20458;-68
2023/12/02 00:51:40;;;;;;;17.17;11.83;;;2.80;29.40;;;;;;5044415;28;20453;-68
2023/12/02 00:54:08;;;;;;;15.10;10.43;;;2.80;29.40;;;;;;5044714;28;21108;-67
2023/12/02 00:56:35;;;;;;;16.20;9.90;;;2.80;29.50;;;;;;5046564;28;20610;-67
2023/12/02 00:59:02;;;;;;;15.40;9.30;;;2.80;29.20;;;;;;5045900;28;20473;-68
2023/12/02 01:01:29;;;;;;;14.00;10.20;;;2.80;29.00;;;;;;5048736;28;20476;-68
2023/12/02 01:03:56;;;;;;;13.30;9.03;;;2.80;29.10;;;;;;5046034;28;20988;-68
2023/12/02 01:06:23;;;;;;;14.57;10.40;;;2.80;29.20;;;;;;5050869;28;20492;-68
2023/12/02 01:08:50;;;;;;;11.87;8.40;;;2.80;29.20;;;;;;5045299;28;20604;-68
2023/12/02 01:11:18;;;;;;;15.40;10.13;;;2.80;29.20;;;;;;5047922;28;20462;-68
2023/12/02 01:13:45;;;;;;;14.23;9.67;;;2.70;29.20;;;;;;5048099;28;20564;-67
2023/12/02 01:16:12;;;;;;;12.80;9.10;;;2.70;29.30;;;;;;5048504;28;20581;-68
2023/12/02 01:18:38;;;;;;;13.50;8.43;;;2.70;29.30;;;;;;5044089;28;20574;-68
2023/12/02 01:21:06;;;;;;;14.27;9.43;;;2.80;29.20;;;;;;5048826;28;20548;-68
2023/12/02 01:23:32;;;;;;;14.70;9.60;;;2.70;29.10;;;;;;5044814;28;20809;-68
2023/12/02 01:26:00;;;;;;;17.40;9.53;;;2.70;29.60;;;;;;5047989;28;20454;-68
2023/12/02 01:28:28;;;;;;;13.33;9.47;;;2.70;28.90;;;;;;5047955;28;20461;-68
2023/12/02 01:30:55;;;;;;;16.33;10.80;;;2.70;29.00;;;;;;5042766;28;20488;-68
2023/12/02 01:33:22;;;;;;;15.17;10.40;;;2.70;29.10;;;;;;5050724;28;20488;-68
2023/12/02 01:35:50;;;;;;;14.57;9.77;;;2.70;29.20;;;;;;5047765;28;20972;-68
2023/12/02 01:38:17;;;;;;;13.33;9.50;;;2.70;29.10;;;;;;5049656;28;20469;-68
2023/12/02 01:40:44;;;;;;;13.47;9.60;;;2.70;28.80;;;;;;5045247;28;20834;-67
2023/12/02 01:43:21;;;;;;;14.70;10.70;;;2.70;28.60;;;;;;5045352;28;20476;-68
2023/12/02 01:45:49;;;;;;;16.20;11.10;;;2.70;28.90;;;;;;5047102;28;20543;-67
2023/12/02 01:48:17;;;;;;;13.40;9.90;;;2.70;29.60;;;;;;5046947;28;20454;-67
2023/12/02 01:50:44;;;;;;;11.83;9.20;;;2.70;29.00;;;;;;5058444;22;20489;-65
2023/12/02 01:53:11;;;;;;;12.07;8.20;;;2.70;28.80;;;;;;5020555;28;20474;-65
2023/12/02 01:55:38;;;;;;;11.60;8.90;;;2.70;28.70;;;;;;5021791;28;20470;-66
2023/12/02 01:58:05;;;;;;;11.77;7.50;;;2.60;28.70;;;;;;5003576;28;20491;-65
2023/12/02 02:00:32;;;;;;;14.17;9.77;;;2.60;28.50;;;;;;5008834;28;20459;-65
2023/12/02 02:03:00;;;;;;;16.23;10.80;;;2.60;29.10;;;;;;5005738;28;20472;-67
2023/12/02 02:05:27;;;;;;;15.40;9.83;;;2.60;28.60;;;;;;5009862;28;20540;-66
2023/12/02 02:07:54;;;;;;;11.73;7.63;;;2.60;28.50;;;;;;5009227;28;20498;-66
2023/12/02 02:10:21;;;;;;;12.43;8.50;;;2.60;28.30;;;;;;5008535;28;20460;-66
2023/12/02 02:12:48;;;;;;;11.40;7.90;;;2.60;27.90;;;;;;5007183;28;20479;-66
2023/12/02 02:15:15;;;;;;;11.60;8.33;;;2.60;28.00;;;;;;5008296;28;21196;-66
2023/12/02 02:17:42;;;;;;;13.70;8.20;;;2.50;28.30;;;;;;5005972;28;21011;-66
2023/12/02 02:20:12;;;;;;;11.90;7.03;;;2.50;28.50;;;;;;5006607;28;20944;-66
2023/12/02 02:22:40;;;;;;;12.37;8.13;;;2.50;28.60;;;;;;5009168;28;20543;-66
2023/12/02 02:25:07;;;;;;;11.60;7.90;;;2.50;28.60;;;;;;5006869;28;20462;-66
2023/12/02 02:27:34;;;;;;;13.00;8.50;;;2.40;28.60;;;;;;5005190;28;20501;-66
2023/12/02 02:30:01;;;;;;;14.00;9.23;;;2.40;28.70;;;;;;5006743;28;20463;-66
2023/12/02 02:32:28;;;;;;;13.53;8.77;;;2.40;28.80;;;;;;5003593;28;20572;-66
2023/12/02 02:34:55;;;;;;;12.60;9.40;;;2.40;28.70;;;;;;5004827;28;20483;-67
2023/12/02 02:37:22;;;;;;;14.80;9.03;;;2.40;28.80;;;;;;5007903;28;20487;-66
2023/12/02 02:39:50;;;;;;;13.27;9.07;;;2.40;28.80;;;;;;5007903;28;20467;-66
2023/12/02 02:42:17;;;;;;;14.30;9.33;;;2.40;28.80;;;;;;5007369;28;20473;-67
2023/12/02 02:44:44;;;;;;;11.53;8.47;;;2.40;28.80;;;;;;5008234;28;20464;-66
2023/12/02 02:47:11;;;;;;;15.57;9.03;;;2.40;28.70;;;;;;5007191;28;20476;-66
2023/12/02 02:49:38;;;;;;;14.43;8.87;;;2.40;28.60;;;;;;5007237;28;20838;-66
2023/12/02 02:52:05;;;;;;;13.77;8.63;;;2.40;28.40;;;;;;5006025;28;20478;-66
2023/12/02 02:54:32;;;;;;;14.20;8.77;;;2.40;28.40;;;;;;5007749;28;20492;-66
2023/12/02 02:57:00;;;;;;;13.47;9.10;;;2.50;28.30;;;;;;5007149;28;20852;-65
2023/12/02 02:59:26;;;;;;;13.80;9.80;;;2.50;28.00;;;;;;5004306;28;20485;-65
2023/12/02 03:01:53;;;;;;;13.00;8.37;;;2.50;27.80;;;;;;5005729;28;20930;-65
2023/12/02 03:04:19;;;;;;;15.17;9.77;;;2.40;27.80;;;;;;5008327;28;20194;-65
2023/12/02 03:06:46;;;;;;;13.30;8.80;;;2.40;27.90;;;;;;5007151;28;20509;-65
2023/12/02 03:09:14;;;;;;;13.60;8.50;;;2.50;27.50;;;;;;5008443;28;20570;-65
2023/12/02 03:11:41;;;;;;;12.53;8.40;;;2.50;27.40;;;;;;5008178;28;20518;-65
2023/12/02 03:14:09;;;;;;;14.83;9.20;;;2.40;27.40;;;;;;5000899;28;20491;-65
2023/12/02 03:16:36;;;;;;;13.63;8.60;;;2.40;27.60;;;;;;5007512;28;21034;-65
2023/12/02 03:19:03;;;;;;;12.57;8.00;;;2.40;27.50;;;;;;5006831;28;20459;-65
2023/12/02 03:21:30;;;;;;;14.10;9.30;;;2.40;27.50;;;;;;5007948;28;20482;-66
2023/12/02 03:23:57;;;;;;;13.30;8.47;;;2.30;27.40;;;;;;5004966;28;20491;-65
2023/12/02 03:26:24;;;;;;;13.60;8.60;;;2.30;27.40;;;;;;5006789;28;20486;-65
2023/12/02 03:28:52;;;;;;;14.00;8.93;;;2.30;27.40;;;;;;5005770;28;20460;-66
2023/12/02 03:31:20;;;;;;;17.17;10.20;;;2.30;27.10;;;;;;5008077;28;20550;-66
2023/12/02 03:33:47;;;;;;;14.67;8.87;;;2.30;27.00;;;;;;5006834;28;20488;-66
2023/12/02 03:36:14;;;;;;;13.50;8.60;;;2.30;27.00;;;;;;5004844;28;20602;-66
2023/12/02 03:38:41;;;;;;;13.37;8.50;;;2.30;26.90;;;;;;5006039;28;20498;-66
2023/12/02 03:41:08;;;;;;;13.73;9.63;;;2.30;27.10;;;;;;5006082;28;20499;-66
2023/12/02 03:43:36;;;;;;;15.20;8.77;;;2.30;27.20;;;;;;5004775;28;20467;-66
2023/12/02 03:46:03;;;;;;;14.53;9.77;;;2.20;27.20;;;;;;5005983;28;20472;-66
2023/12/02 03:48:31;;;;;;;15.30;10.47;;;2.20;27.40;;;;;;5001638;28;20463;-66
2023/12/02 03:50:59;;;;;;;15.10;9.70;;;2.20;27.60;;;;;;5007002;28;20466;-66
2023/12/02 03:53:30;;;;;;;13.70;8.73;;;2.20;27.80;;;;;;5003892;28;20473;-66
2023/12/02 03:55:57;;;;;;;15.03;9.43;;;2.20;27.90;;;;;;5006376;28;20766;-66
2023/12/02 03:58:24;;;;;;;17.10;8.80;;;2.20;27.90;;;;;;5005682;28;20476;-66
2023/12/02 04:00:51;;;;;;;14.23;9.83;;;2.20;27.60;;;;;;5006354;28;20826;-66
2023/12/02 04:03:18;;;;;;;16.27;9.33;;;2.20;27.80;;;;;;5007063;28;20551;-66
2023/12/02 04:05:46;;;;;;;14.60;8.63;;;2.10;27.30;;;;;;5006887;28;20460;-66
2023/12/02 04:08:13;;;;;;;14.93;10.23;;;2.20;27.20;;;;;;5005327;28;20857;-66
2023/12/02 04:10:40;;;;;;;16.70;9.30;;;2.10;27.20;;;;;;5007490;28;20873;-66
2023/12/02 04:13:07;;;;;;;14.83;9.27;;;2.10;27.30;;;;;;5003030;28;20597;-66
2023/12/02 04:15:34;;;;;;;13.60;9.17;;;2.10;27.30;;;;;;5002900;28;20486;-66
2023/12/02 04:18:02;;;;;;;13.50;8.90;;;2.10;27.40;;;;;;5005255;28;20537;-66
2023/12/02 04:20:29;;;;;;;16.80;10.13;;;2.10;27.40;;;;;;5006191;28;20522;-66
2023/12/02 04:22:57;;;;;;;15.40;10.23;;;2.10;27.30;;;;;;5003503;28;20496;-66
2023/12/02 04:25:24;;;;;;;14.37;9.20;;;2.10;27.50;;;;;;5003813;28;20461;-66
2023/12/02 04:27:51;;;;;;;15.90;9.80;;;2.10;27.10;;;;;;5004324;28;20494;-66
2023/12/02 04:30:18;;;;;;;14.57;9.13;;;2.10;27.20;;;;;;5005640;28;20456;-66
2023/12/02 04:32:45;;;;;;;15.63;9.47;;;2.10;27.10;;;;;;5006743;28;20463;-66
2023/12/02 04:35:12;;;;;;;16.77;9.47;;;2.10;26.60;;;;;;5006525;28;20872;-66
2023/12/02 04:37:39;;;;;;;15.47;10.03;;;2.10;26.70;;;;;;5005268;28;20570;-66
2023/12/02 04:40:11;;;;;;;15.43;10.47;;;2.10;26.80;;;;;;5010100;28;20463;-66
2023/12/02 04:42:38;;;;;;;16.53;10.27;;;2.10;26.80;;;;;;5010605;28;20460;-66
2023/12/02 04:45:07;;;;;;;16.33;9.77;;;2.10;26.30;;;;;;5007543;28;20461;-66
2023/12/02 04:47:36;;;;;;;16.23;9.27;;;2.10;26.30;;;;;;5008647;28;20530;-66
2023/12/02 04:50:03;;;;;;;18.43;10.13;;;2.00;26.40;;;;;;5007963;28;21091;-66
2023/12/02 04:52:30;;;;;;;15.60;9.93;;;2.00;25.90;;;;;;5011163;28;20459;-66
2023/12/02 04:54:57;;;;;;;15.47;9.70;;;2.00;26.20;;;;;;5009527;28;20502;-66
2023/12/02 04:57:26;;;;;;;15.27;10.20;;;2.00;26.20;;;;;;5005046;28;20488;-66
2023/12/02 04:59:53;;;;;;;17.90;10.77;;;1.90;26.50;;;;;;5004815;28;20472;-66
2023/12/02 05:02:20;;;;;;;16.27;9.30;;;2.00;26.20;;;;;;5008391;28;20498;-66
2023/12/02 05:04:47;;;;;;;17.03;11.00;;;1.90;26.50;;;;;;5009586;28;20471;-66
2023/12/02 05:07:14;;;;;;;17.63;11.60;;;1.90;26.70;;;;;;5009547;28;20484;-66
2023/12/02 05:09:41;;;;;;;14.97;10.03;;;1.90;26.50;;;;;;5006964;28;20468;-66
2023/12/02 05:12:08;;;;;;;16.40;10.00;;;1.90;26.20;;;;;;5006771;28;20461;-66
2023/12/02 05:14:36;;;;;;;18.73;11.37;;;1.90;26.40;;;;;;5007479;28;20480;-66
2023/12/02 05:17:03;;;;;;;21.37;10.80;;;1.90;26.20;;;;;;5011102;28;20519;-66
2023/12/02 05:19:30;;;;;;;16.37;10.10;;;1.90;25.80;;;;;;5008244;28;20463;-66
2023/12/02 05:21:57;;;;;;;18.73;12.17;;;1.90;25.50;;;;;;5009285;28;20474;-66
2023/12/02 05:24:24;;;;;;;17.17;11.10;;;1.90;25.80;;;;;;5007976;28;21229;-66
2023/12/02 05:26:51;;;;;;;21.23;10.70;;;1.90;25.50;;;;;;5005860;28;20492;-66
2023/12/02 05:29:18;;;;;;;17.40;11.30;;;1.90;25.80;;;;;;5005374;28;20515;-66
2023/12/02 05:31:46;;;;;;;18.87;11.53;;;1.80;25.90;;;;;;5005709;28;20472;-66
2023/12/02 05:34:13;;;;;;;16.27;11.37;;;1.90;26.30;;;;;;5007894;28;20498;-66
2023/12/02 05:36:40;;;;;;;20.00;11.30;;;1.80;26.00;;;;;;5006576;28;20483;-66
2023/12/02 05:39:07;;;;;;;18.73;10.80;;;1.80;26.30;;;;;;5007952;28;20570;-66
2023/12/02 05:41:33;;;;;;;18.00;11.23;;;1.80;26.40;;;;;;5009137;28;20455;-66
2023/12/02 05:44:00;;;;;;;17.07;10.17;;;1.80;26.40;;;;;;5007102;28;20475;-66
2023/12/02 05:46:27;;;;;;;19.03;12.00;;;1.80;26.30;;;;;;5007483;28;20471;-66
2023/12/02 05:48:55;;;;;;;18.70;10.80;;;1.80;26.50;;;;;;5003202;28;20461;-66
2023/12/02 05:51:22;;;;;;;19.40;12.30;;;1.80;26.60;;;;;;5007198;28;20520;-66
2023/12/02 05:53:49;;;;;;;18.03;10.90;;;1.80;26.70;;;;;;5009107;28;21040;-66
2023/12/02 05:56:19;;;;;;;17.83;10.77;;;1.80;26.70;;;;;;5005694;28;20490;-66
2023/12/02 05:58:46;;;;;;;20.90;12.43;;;1.80;26.60;;;;;;5005656;28;20461;-66
2023/12/02 06:01:19;;;;;;;17.73;11.30;;;1.80;26.50;;;;;;5005561;28;20492;-66
2023/12/02 06:03:46;;;;;;;17.67;11.07;;;1.80;26.60;;;;;;5009710;28;20468;-66
2023/12/02 06:06:14;;;;;;;17.13;11.77;;;1.80;26.50;;;;;;5008679;28;20487;-66
2023/12/02 06:08:41;;;;;;;19.20;11.70;;;1.80;26.40;;;;;;5008104;28;20567;-66
2023/12/02 06:11:08;;;;;;;18.80;11.87;;;1.80;26.40;;;;;;5006497;28;20483;-65
2023/12/02 06:13:35;;;;;;;17.73;11.80;;;1.80;26.40;;;;;;5003126;28;20468;-65
2023/12/02 06:16:02;;;;;;;18.27;12.33;;;1.80;26.40;;;;;;5005073;28;20849;-65
2023/12/02 06:18:29;;;;;;;20.97;14.80;;;1.80;26.00;;;;;;5003644;28;20887;-65
2023/12/02 06:20:57;;;;;;;21.90;12.77;;;1.80;25.90;;;;;;5002993;28;21181;-65
2023/12/02 06:23:25;;;;;;;19.93;11.07;;;1.80;26.00;;;;;;5003964;28;20464;-65
2023/12/02 06:25:52;;;;;;;19.27;11.50;;;1.80;26.10;;;;;;5007023;28;20448;-65
2023/12/02 06:28:20;;;;;;;18.43;12.07;;;1.80;25.80;;;;;;5007085;28;20459;-65
2023/12/02 06:30:47;;;;;;;21.40;11.33;;;1.70;26.00;;;;;;5004154;28;21028;-65
2023/12/02 06:33:13;;;;;;;24.40;13.30;;;1.70;25.80;;;;;;5004283;28;20472;-68
2023/12/02 06:35:40;;;;;;;21.27;13.10;;;1.70;25.80;;;;;;5002124;28;20472;-67
2023/12/02 06:38:07;;;;;;;25.13;13.20;;;1.70;25.80;;;;;;5001059;28;20492;-65
2023/12/02 06:40:35;;;;;;;22.67;14.00;;;1.70;25.80;;;;;;5007302;28;22328;-66
2023/12/02 06:43:02;;;;;;;19.97;13.20;;;1.70;25.90;;;;;;5005589;28;20483;-68
2023/12/02 06:45:29;;;;;;;20.50;13.00;;;1.70;25.70;;;;;;5002200;28;20906;-66
2023/12/02 06:47:57;;;;;;;19.30;12.63;;;1.70;25.90;;;;;;5004608;28;20487;-66
2023/12/02 06:50:23;;;;;;;20.90;12.33;;;1.70;26.00;;;;;;5004901;28;20968;-66
2023/12/02 06:52:51;;;;;;;23.20;14.10;;;1.60;26.00;;;;;;5007540;28;20459;-66
2023/12/02 06:55:18;;;;;;;22.33;12.37;;;1.70;26.00;;;;;;5007541;28;20623;-66
2023/12/02 06:57:46;;;;;;;23.50;13.40;;;1.70;25.70;;;;;;5006989;28;20714;-66
2023/12/02 07:00:14;;;;;;;22.07;12.67;;;1.60;26.50;;;;;;5003838;28;21876;-65
2023/12/02 07:02:42;;;;;;;30.47;16.57;;;1.70;26.00;;;;;;5005181;28;20462;-67
2023/12/02 07:05:09;;;;;;;25.57;14.90;;;1.60;25.90;;;;;;5006059;28;20466;-66
2023/12/02 07:07:36;;;;;;;27.50;15.50;;;1.60;26.00;;;;;;5005857;28;20571;-66
2023/12/02 07:10:03;;;;;;;23.80;14.80;;;1.60;25.90;;;;;;5006134;28;20483;-67
2023/12/02 07:12:30;;;;;;;21.57;14.20;;;1.70;26.10;;;;;;5007688;28;20632;-66
2023/12/02 07:14:58;;;;;;;22.37;15.03;;;1.70;26.20;;;;;;5007330;28;20487;-67
2023/12/02 07:17:25;;;;;;;22.37;15.03;;;1.70;26.30;;;;;;5005694;28;20849;-66
2023/12/02 07:19:52;;;;;;;22.07;12.80;;;1.80;26.20;;;;;;5005777;28;20463;-67
2023/12/02 07:22:19;;;;;;;24.77;14.30;;;1.80;26.00;;;;;;5006603;28;20498;-65
2023/12/02 07:24:46;;;;;;;21.73;14.00;;;1.80;25.80;;;;;;5006699;28;20455;-66
2023/12/02 07:27:13;;;;;;;21.30;13.40;;;1.80;26.40;;;;;;5006448;28;20648;-66
2023/12/02 07:29:40;;;;;;;23.07;13.97;;;1.90;25.80;;;;;;5003487;28;20466;-67
2023/12/02 07:32:08;;;;;;;23.37;13.53;;;1.90;25.80;;;;;;5004966;28;20472;-66
2023/12/02 07:34:35;;;;;;;21.53;12.40;;;1.90;25.20;;;;;;5003101;28;21073;-67
2023/12/02 07:37:02;;;;;;;22.50;13.17;;;1.90;25.40;;;;;;5003593;28;20479;-67
2023/12/02 07:39:29;;;;;;;21.17;12.57;;;1.90;25.30;;;;;;5004301;28;20468;-66
2023/12/02 07:41:56;;;;;;;22.53;13.87;;;2.00;25.70;;;;;;5005702;28;20463;-66
2023/12/02 07:44:23;;;;;;;20.47;12.83;;;1.90;25.70;;;;;;5003841;28;20861;-67
2023/12/02 07:46:50;;;;;;;21.20;13.53;;;1.90;25.70;;;;;;5002081;28;20912;-67
2023/12/02 07:49:18;;;;;;;22.53;13.60;;;1.90;24.90;;;;;;5004589;28;20456;-67
2023/12/02 07:51:45;;;;;;;24.23;14.00;;;1.90;24.90;;;;;;5007214;28;20470;-67
2023/12/02 07:54:12;;;;;;;26.10;16.40;;;1.90;24.90;;;;;;5006926;28;20613;-67
2023/12/02 07:56:39;;;;;;;22.40;13.67;;;1.90;24.90;;;;;;4997825;28;20491;-67
2023/12/02 07:59:06;;;;;;;21.43;13.30;;;2.00;24.80;;;;;;5003509;28;20986;-67
2023/12/02 08:01:33;;;;;;;24.90;13.67;;;2.00;24.50;;;;;;5003890;28;20559;-67
2023/12/02 08:04:00;;;;;;;24.00;14.10;;;2.00;24.30;;;;;;5006200;28;20459;-67
2023/12/02 08:06:28;;;;;;;24.03;14.70;;;2.00;24.30;;;;;;5002279;28;20480;-67
2023/12/02 08:08:55;;;;;;;23.17;12.90;;;2.00;24.50;;;;;;5003966;28;20813;-67
2023/12/02 08:11:22;;;;;;;21.10;13.37;;;2.10;24.70;;;;;;5001004;28;20472;-67
2023/12/02 08:13:49;;;;;;;18.10;12.30;;;2.10;23.90;;;;;;5003234;28;20474;-66
2023/12/02 08:16:16;;;;;;;19.57;12.60;;;2.10;24.50;;;;;;5005507;28;20585;-67
2023/12/02 08:18:43;;;;;;;18.67;10.93;;;2.10;24.00;;;;;;5002900;28;20477;-68
2023/12/02 08:21:09;;;;;;;22.00;13.87;;;2.10;23.60;;;;;;5004938;28;20468;-67
2023/12/02 08:23:38;;;;;;;22.17;14.03;;;2.20;23.60;;;;;;5003606;28;20849;-67
2023/12/02 08:28:34;;;;;;;29.40;19.20;;;2.20;23.60;;;;;;4965634;28;20472;-72
2023/12/02 08:31:01;;;;;;;26.43;14.40;;;2.20;23.70;;;;;;4971170;28;20561;-71
2023/12/02 08:33:28;;;;;;;20.73;13.37;;;2.20;23.80;;;;;;4971615;28;20462;-71
2023/12/02 08:35:55;;;;;;;22.80;15.53;;;2.20;23.80;;;;;;4968200;28;20568;-72
2023/12/02 08:38:22;;;;;;;23.47;16.20;;;2.20;23.80;;;;;;4967959;28;20964;-72
2023/12/02 08:40:50;;;;;;;22.33;16.20;;;2.20;23.60;;;;;;4966534;28;20964;-72
2023/12/02 08:43:17;;;;;;;20.57;13.97;;;2.20;23.60;;;;;;4964944;28;20544;-70
2023/12/02 08:45:44;;;;;;;16.77;11.07;;;2.20;23.60;;;;;;4968389;28;20964;-71
2023/12/02 08:48:11;;;;;;;18.67;12.13;;;2.30;22.90;;;;;;4967204;28;21189;-71
2023/12/02 08:50:38;;;;;;;19.57;12.53;;;2.30;23.00;;;;;;4968809;28;20465;-72
2023/12/02 08:53:04;;;;;;;22.20;12.30;;;2.40;23.00;;;;;;4973602;28;20571;-72
2023/12/02 08:55:37;;;;;;;15.33;9.97;;;2.40;22.70;;;;;;4976906;28;20517;-71
2023/12/02 08:58:05;;;;;;;15.20;9.13;;;2.40;22.50;;;;;;4968709;28;21012;-71
2023/12/02 09:00:32;;;;;;;17.63;10.83;;;2.40;22.30;;;;;;4968057;28;20960;-71
2023/12/02 09:02:59;;;;;;;15.90;9.33;;;2.40;22.20;;;;;;4966750;28;20475;-71
2023/12/02 09:05:26;;;;;;;16.47;11.00;;;2.50;22.00;;;;;;4974193;28;21311;-73
2023/12/02 09:07:53;;;;;;;17.27;9.70;;;2.50;21.80;;;;;;4968671;28;20485;-70
2023/12/02 09:10:20;;;;;;;16.33;10.07;;;2.40;21.80;;;;;;4964367;28;20465;-72
2023/12/02 09:12:47;;;;;;;17.20;10.23;;;2.50;21.50;;;;;;4968135;28;20564;-70
2023/12/02 09:15:35;;;;;;;13.87;8.80;;;2.50;21.50;;;;;;4968893;28;20787;-72
2023/12/02 09:18:10;;;;;;;15.70;9.50;;;2.50;21.60;;;;;;4961624;28;20574;-72
2023/12/02 09:20:45;;;;;;;15.30;10.47;;;2.50;21.80;;;;;;4970854;28;20461;-71
2023/12/02 09:23:13;;;;;;;16.53;10.00;;;2.50;21.80;;;;;;4966952;28;20465;-72
2023/12/02 09:25:41;;;;;;;15.20;9.53;;;2.50;21.80;;;;;;4972714;28;20481;-72
2023/12/02 09:28:17;;;;;;;20.93;11.00;;;2.70;21.40;;;;;;4971996;28;20500;-71
2023/12/02 09:30:52;;;;;;;13.73;8.30;;;2.70;20.70;;;;;;4978972;28;20543;-70
2023/12/02 09:33:19;;;;;;;15.30;8.30;;;2.70;20.30;;;;;;4969236;28;20446;-71
2023/12/02 09:35:48;;;;;;;15.20;9.73;;;2.80;20.30;;;;;;4962070;28;20521;-72
2023/12/02 09:38:16;;;;;;;14.13;9.30;;;2.80;20.40;;;;;;4974593;28;20541;-71
2023/12/02 09:41:18;;;;;;;13.23;8.67;;;2.80;20.60;;;;;;4978937;28;20460;-72
2023/12/02 09:44:00;;;;;;;12.50;8.00;;;2.80;20.60;;;;;;4977058;28;20449;-71
2023/12/02 09:46:33;;;;;;;10.67;6.87;;;2.80;20.30;;;;;;4972142;28;20831;-71
2023/12/02 09:49:28;;;;;;;13.10;8.50;;;2.80;20.80;;;;;;4963447;28;20457;-71
2023/12/02 09:52:24;;;;;;;12.60;8.20;;;2.90;20.20;;;;;;4968136;28;20520;-71
2023/12/02 09:54:59;;;;;;;12.70;9.00;;;2.80;19.90;;;;;;4973162;28;20457;-71
2023/12/02 09:57:34;;;;;;;13.93;8.53;;;2.80;19.80;;;;;;4977493;28;20488;-71
2023/12/02 10:00:12;;;;;;;11.70;8.53;;;2.80;19.90;;;;;;4976657;28;20838;-71
2023/12/02 10:02:59;;;;;;;12.20;8.00;;;2.80;19.90;;;;;;4968384;28;20472;-70
2023/12/02 10:05:26;;;;;;;14.67;7.50;;;2.80;20.00;;;;;;4972108;28;20469;-70
2023/12/02 10:08:03;;;;;;;11.27;7.30;;;2.80;19.80;;;;;;4971942;28;20861;-72
2023/12/02 10:10:41;;;;;;;13.00;9.53;;;2.80;19.80;;;;;;4968165;28;20453;-72
2023/12/02 10:13:18;;;;;;;13.73;8.53;;;2.80;19.40;;;;;;4963804;28;20461;-71
2023/12/02 10:15:48;;;;;;;15.23;8.90;;;2.80;19.50;;;;;;4959330;28;20565;-70
2023/12/02 10:18:17;;;;;;;11.93;7.70;;;2.80;19.50;;;;;;4978338;28;20501;-71
2023/12/02 10:20:45;;;;;;;12.60;8.10;;;2.90;19.30;;;;;;4971101;28;20453;-71
2023/12/02 10:23:23;;;;;;;13.73;9.27;;;2.90;19.10;;;;;;4971364;28;20884;-71
2023/12/02 10:26:01;;;;;;;18.33;8.10;;;2.90;19.20;;;;;;4978778;28;21282;-71
2023/12/02 10:28:36;;;;;;;14.57;8.37;;;3.00;19.00;;;;;;4971041;28;20553;-71
2023/12/02 10:31:06;;;;;;;12.93;8.37;;;3.00;18.20;;;;;;4963051;28;20592;-71
2023/12/02 10:33:40;;;;;;;12.50;8.63;;;3.00;18.50;;;;;;4971636;28;20528;-71
2023/12/02 10:36:11;;;;;;;13.57;8.37;;;3.00;18.60;;;;;;4975250;28;20568;-71
2023/12/02 10:38:49;;;;;;;15.40;9.57;;;3.00;18.60;;;;;;4971502;28;20481;-68
2023/12/02 10:41:26;;;;;;;12.00;7.93;;;3.10;18.30;;;;;;4952572;28;20566;-72
2023/12/02 10:43:56;;;;;;;14.00;9.83;;;3.10;18.10;;;;;;4962093;28;20457;-71
2023/12/02 10:46:24;;;;;;;13.20;8.70;;;3.10;18.10;;;;;;4976708;28;20456;-71
2023/12/02 10:48:54;;;;;;;13.10;9.07;;;3.10;18.60;;;;;;4965883;28;20549;-71
2023/12/02 10:51:23;;;;;;;14.83;10.20;;;3.10;18.10;;;;;;4970014;28;20544;-70
2023/12/02 10:53:51;;;;;;;12.30;7.67;;;3.10;18.00;;;;;;4972770;28;20458;-71
2023/12/02 10:56:23;;;;;;;13.63;8.53;;;3.10;18.10;;;;;;4971173;28;20484;-71
2023/12/02 10:58:52;;;;;;;13.10;8.90;;;3.10;17.70;;;;;;4968743;28;20532;-70
2023/12/02 11:01:26;;;;;;;13.37;9.37;;;3.10;17.30;;;;;;4970262;28;20922;-71
2023/12/02 11:04:07;;;;;;;13.10;8.80;;;3.10;17.70;;;;;;4962866;28;20449;-72
2023/12/02 11:06:38;;;;;;;14.73;9.50;;;3.10;17.90;;;;;;4969752;28;20449;-71
2023/12/02 11:09:11;;;;;;;13.43;9.10;;;3.10;18.00;;;;;;4959351;28;20453;-71
2023/12/02 11:11:53;;;;;;;14.60;9.80;;;3.00;17.90;;;;;;4968515;28;20485;-71
2023/12/02 11:14:22;;;;;;;18.43;10.40;;;3.00;18.00;;;;;;4977725;28;20508;-71
2023/12/02 11:17:07;;;;;;;13.90;9.27;;;3.00;18.00;;;;;;4970184;28;20572;-73
2023/12/02 11:19:50;;;;;;;16.63;10.50;;;3.00;18.20;;;;;;4957823;28;20459;-71
2023/12/02 11:22:36;;;;;;;14.33;10.10;;;3.10;17.90;;;;;;4965562;28;20988;-72
2023/12/02 11:25:16;;;;;;;15.00;9.50;;;3.10;17.70;;;;;;4973770;28;20868;-71
2023/12/02 11:27:50;;;;;;;15.57;10.07;;;3.00;17.60;;;;;;4969977;28;20515;-72
2023/12/02 11:30:32;;;;;;;16.23;11.23;;;3.00;17.70;;;;;;4968395;28;20449;-71
2023/12/02 11:33:14;;;;;;;16.97;9.30;;;3.00;17.60;;;;;;4976104;28;20569;-71
2023/12/02 11:35:52;;;;;;;20.67;11.27;;;2.90;17.70;;;;;;4963223;28;20501;-71
2023/12/02 11:38:20;;;;;;;17.07;10.60;;;2.90;17.00;;;;;;4969931;28;20986;-71
2023/12/02 11:40:56;;;;;;;15.87;10.30;;;2.90;17.40;;;;;;4969751;28;20486;-71
2023/12/02 11:43:34;;;;;;;15.23;10.47;;;2.90;17.60;;;;;;4969052;28;20472;-70
2023/12/02 11:46:06;;;;;;;25.30;14.87;;;2.90;17.70;;;;;;4965392;28;20553;-71
2023/12/02 11:48:42;;;;;;;19.20;11.00;;;2.80;17.40;;;;;;4971152;28;20822;-70
2023/12/02 11:51:25;;;;;;;16.63;11.60;;;2.70;17.60;;;;;;4968771;28;20487;-70
2023/12/02 11:54:14;;;;;;;16.73;11.37;;;2.80;17.60;;;;;;4966707;28;20524;-71
2023/12/02 11:56:51;;;;;;;17.40;11.37;;;2.70;17.70;;;;;;4967757;28;20501;-70
2023/12/02 11:59:20;;;;;;;19.23;12.40;;;2.70;17.70;;;;;;4970421;28;20535;-70
2023/12/02 12:01:57;;;;;;;16.53;10.73;;;2.70;17.60;;;;;;4966882;28;20565;-70
2023/12/02 12:04:54;;;;;;;14.37;10.03;;;2.70;17.90;;;;;;4967411;28;20899;-71
2023/12/02 12:07:47;;;;;;;13.60;9.33;;;2.70;18.00;;;;;;4952567;28;20541;-70
2023/12/02 12:10:18;;;;;;;14.93;9.40;;;2.70;17.40;;;;;;4966493;28;20861;-72
2023/12/02 12:12:48;;;;;;;12.90;9.33;;;2.70;17.30;;;;;;4968983;28;20512;-71
2023/12/02 12:15:16;;;;;;;14.00;10.00;;;2.70;17.30;;;;;;4962826;28;20469;-72
2023/12/02 12:17:42;;;;;;;20.73;11.43;;;2.80;17.30;;;;;;4970076;28;20564;-71
2023/12/02 12:20:19;;;;;;;16.23;11.10;;;2.80;17.20;;;;;;4969226;28;20504;-70
2023/12/02 12:22:48;;;;;;;14.27;10.10;;;2.70;17.30;;;;;;4962667;28;20561;-71
2023/12/02 12:25:14;;;;;;;12.63;8.50;;;2.80;17.00;;;;;;4968244;28;20497;-71
2023/12/02 12:27:41;;;;;;;14.13;8.60;;;2.80;17.00;;;;;;4969405;28;20505;-71
2023/12/02 12:30:09;;;;;;;10.97;7.40;;;2.80;16.40;;;;;;4968301;28;20545;-71
2023/12/02 12:32:38;;;;;;;13.77;9.50;;;2.80;15.50;;;;;;4969433;28;20489;-71
2023/12/02 12:35:11;;;;;;;14.37;8.93;;;2.70;15.90;;;;;;4964861;28;20485;-71
2023/12/02 12:37:40;;;;;;;13.47;9.00;;;2.70;16.40;;;;;;4968930;28;21054;-70
2023/12/02 12:40:10;;;;;;;13.73;8.97;;;2.60;16.60;;;;;;4970093;28;20508;-71
2023/12/02 12:42:47;;;;;;;14.20;8.83;;;2.60;16.50;;;;;;4963379;28;20521;-70
2023/12/02 12:45:14;;;;;;;14.77;9.70;;;2.50;16.90;;;;;;4962684;28;20455;-71
2023/12/02 12:47:43;;;;;;;13.57;8.57;;;2.60;16.90;;;;;;4969893;28;20456;-72
2023/12/02 12:50:12;;;;;;;15.17;9.50;;;2.60;16.50;;;;;;4970585;28;20504;-71
2023/12/02 12:52:50;;;;;;;15.17;9.80;;;2.60;16.70;;;;;;4958752;28;20509;-71